createdAt,value
2022-09-20T00:05:02.282Z,20.50
2022-09-20T00:10:06.057Z,20.60
2022-09-20T00:15:11.249Z,20.50
2022-09-20T00:20:14.419Z,20.40
2022-09-20T00:25:17.921Z,20.40
2022-09-20T00:30:22.445Z,20.30
2022-09-20T00:35:25.663Z,20.20
2022-09-20T00:40:28.994Z,20.20
2022-09-20T00:45:34.529Z,20.20
2022-09-20T00:50:42.371Z,20.10
2022-09-20T00:55:50.393Z,20.10
2022-09-20T01:00:56.330Z,20.10
2022-09-20T01:06:03.278Z,19.90
2022-09-20T01:11:06.869Z,19.80
2022-09-20T01:16:13.718Z,19.80
2022-09-20T01:21:19.024Z,19.70
2022-09-20T01:26:55.862Z,19.70
2022-09-20T01:32:04.223Z,19.70
2022-09-20T01:37:16.024Z,19.60
2022-09-20T01:42:19.622Z,19.60
2022-09-20T01:47:31.959Z,19.60
2022-09-20T01:52:57.260Z,19.60
2022-09-20T01:58:30.063Z,19.50
2022-09-20T02:04:05.179Z,19.50
2022-09-20T02:09:36.287Z,19.50
2022-09-20T02:14:50.255Z,19.50
2022-09-20T02:20:05.370Z,19.60
2022-09-20T02:25:19.126Z,19.50
2022-09-20T02:30:35.693Z,19.50
2022-09-20T02:35:53.242Z,19.50
2022-09-20T02:41:29.341Z,19.40
2022-09-20T02:46:38.938Z,19.50
2022-09-20T02:51:48.490Z,19.50
2022-09-20T02:56:59.060Z,19.50
2022-09-20T03:02:14.550Z,19.50
2022-09-20T03:07:28.262Z,19.50
2022-09-20T03:12:41.319Z,19.50
2022-09-20T03:17:51.161Z,19.60
2022-09-20T03:23:03.351Z,19.60
2022-09-20T03:28:20.154Z,19.70
2022-09-20T03:33:34.124Z,19.60
2022-09-20T03:38:56.074Z,19.60
2022-09-20T03:44:16.092Z,19.60
2022-09-20T03:50:13.540Z,19.60
2022-09-20T03:55:41.594Z,19.60
2022-09-20T04:00:55.538Z,19.60
2022-09-20T04:06:24.182Z,19.50
2022-09-20T04:11:38.467Z,19.50
2022-09-20T04:16:47.347Z,19.40
2022-09-20T04:21:57.051Z,19.30
2022-09-20T04:27:05.267Z,19.20
2022-09-20T04:32:19.279Z,19.20
2022-09-20T04:37:29.864Z,19.10
2022-09-20T04:43:09.586Z,19.10
2022-09-20T04:49:02.409Z,19.00
2022-09-20T04:54:30.004Z,18.90
2022-09-20T04:59:54.898Z,18.90
2022-09-20T05:05:44.651Z,18.80
2022-09-20T05:11:12.754Z,18.80
2022-09-20T05:16:25.172Z,18.70
2022-09-20T05:21:49.988Z,18.70
2022-09-20T05:27:07.683Z,18.70
2022-09-20T05:32:20.963Z,18.70
2022-09-20T05:37:33.714Z,18.60
2022-09-20T05:42:44.385Z,18.60
2022-09-20T05:47:56.376Z,18.60
2022-09-20T05:53:08.706Z,18.50
2022-09-20T05:58:41.265Z,18.50
2022-09-20T06:03:54.479Z,18.50
2022-09-20T06:09:19.385Z,18.50
2022-09-20T06:14:36.317Z,18.50
2022-09-20T06:19:46.598Z,18.50
2022-09-20T06:24:57.433Z,18.70
2022-09-20T06:30:05.835Z,18.90
2022-09-20T06:35:10.774Z,19.10
2022-09-20T06:40:46.555Z,19.20
2022-09-20T06:45:49.802Z,19.20
2022-09-20T06:50:54.508Z,19.30
2022-09-20T06:55:59.028Z,19.30
2022-09-20T07:01:02.407Z,19.30
2022-09-20T07:06:07.824Z,19.30
2022-09-20T07:11:15.857Z,19.30
2022-09-20T07:16:20.149Z,19.30
2022-09-20T07:21:25.417Z,19.30
2022-09-20T07:26:30.647Z,19.30
2022-09-20T07:31:33.928Z,19.40
2022-09-20T07:36:38.849Z,19.50
2022-09-20T07:41:42.237Z,19.50
2022-09-20T07:46:45.575Z,19.50
2022-09-20T07:51:50.323Z,19.50
2022-09-20T07:56:53.542Z,19.50
2022-09-20T08:01:58.939Z,19.50
2022-09-20T08:07:03.618Z,19.60
2022-09-20T08:17:32.724Z,19.60
2022-09-20T08:22:39.341Z,19.60
2022-09-20T08:27:42.568Z,19.60
2022-09-20T08:32:45.892Z,19.70
2022-09-20T08:37:55.237Z,19.60
2022-09-20T08:42:59.244Z,19.60
2022-09-20T08:48:07.704Z,19.70
2022-09-20T08:53:20.983Z,19.70
2022-09-20T08:58:25.235Z,19.80
2022-09-20T09:03:29.513Z,19.80
2022-09-20T09:08:38.062Z,19.80
2022-09-20T09:13:52.889Z,19.80
2022-09-20T09:18:57.934Z,19.90
2022-09-20T09:24:09.930Z,19.90
2022-09-20T09:29:19.199Z,19.90
2022-09-20T09:34:27.604Z,19.90
2022-09-20T09:39:34.436Z,19.90
2022-09-20T09:44:37.645Z,20.00
2022-09-20T09:50:00.357Z,20.00
2022-09-20T09:55:07.521Z,20.20
2022-09-20T10:00:20.376Z,20.50
2022-09-20T10:05:30.879Z,20.80
2022-09-20T10:10:43.627Z,21.10
2022-09-20T10:15:54.579Z,21.50
2022-09-20T10:21:07.936Z,21.90
2022-09-20T10:26:33.839Z,22.50
2022-09-20T10:31:49.206Z,23.00
2022-09-20T10:36:56.167Z,23.40
2022-09-20T10:42:27.057Z,23.70
2022-09-20T10:47:35.454Z,23.90
2022-09-20T10:52:55.034Z,24.10
2022-09-20T10:58:26.481Z,24.20
2022-09-20T11:03:54.218Z,24.20
2022-09-20T11:09:01.132Z,24.20
2022-09-20T11:14:11.340Z,24.10
2022-09-20T11:19:23.530Z,24.10
2022-09-20T11:24:33.357Z,24.20
2022-09-20T11:29:42.238Z,24.50
2022-09-20T11:34:52.045Z,24.80
2022-09-20T11:39:56.462Z,25.10
2022-09-20T11:45:01.403Z,25.20
2022-09-20T11:50:38.527Z,25.10
2022-09-20T11:55:48.703Z,24.80
2022-09-20T12:00:57.407Z,24.60
2022-09-20T12:06:02.305Z,24.30
2022-09-20T12:11:07.591Z,24.00
2022-09-20T12:16:16.828Z,23.70
2022-09-20T12:21:20.868Z,23.40
2022-09-20T12:26:45.212Z,23.20
2022-09-20T12:31:52.174Z,23.00
2022-09-20T12:37:22.945Z,22.80
2022-09-20T12:42:31.501Z,22.60
2022-09-20T12:47:38.691Z,22.50
2022-09-20T12:52:53.866Z,22.40
2022-09-20T12:58:01.450Z,22.40
2022-09-20T13:03:28.586Z,22.40
2022-09-20T13:08:39.315Z,22.30
2022-09-20T13:13:47.432Z,22.20
2022-09-20T13:19:00.538Z,22.10
2022-09-20T13:24:04.576Z,22.00
2022-09-20T13:29:10.602Z,21.80
2022-09-20T13:34:19.743Z,21.70
2022-09-20T13:39:36.239Z,21.60
2022-09-20T13:44:40.703Z,21.40
2022-09-20T13:49:45.674Z,21.30
2022-09-20T13:54:49.021Z,21.10
2022-09-20T13:59:52.682Z,20.90
2022-09-20T14:05:01.094Z,20.80
2022-09-20T14:10:05.297Z,20.60
2022-09-20T14:15:11.395Z,20.60
2022-09-20T14:20:18.194Z,20.50
2022-09-20T14:25:25.415Z,20.50
2022-09-20T14:30:31.821Z,20.50
2022-09-20T14:35:36.405Z,20.50
2022-09-20T14:40:45.406Z,20.40
2022-09-20T14:45:54.279Z,20.40
2022-09-20T14:51:22.167Z,20.40
2022-09-20T14:56:34.982Z,20.30
2022-09-20T15:01:41.250Z,20.20
2022-09-20T15:06:46.153Z,20.20
2022-09-20T15:11:59.857Z,20.20
2022-09-20T15:17:03.152Z,20.30
2022-09-20T15:22:09.201Z,20.30
2022-09-20T15:27:13.437Z,20.30
2022-09-20T15:32:16.608Z,20.30
2022-09-20T15:37:21.256Z,20.40
2022-09-20T15:42:24.621Z,20.30
2022-09-20T15:47:28.715Z,20.30
2022-09-20T15:52:36.436Z,20.20
2022-09-20T15:57:41.407Z,20.20
2022-09-20T16:02:44.688Z,20.10
2022-09-20T16:07:49.296Z,20.00
2022-09-20T16:12:52.507Z,19.90
2022-09-20T16:18:13.254Z,19.80
2022-09-20T16:23:17.843Z,19.70
2022-09-20T16:28:21.163Z,19.70
2022-09-20T16:33:24.611Z,19.70
2022-09-20T16:38:29.658Z,19.60
2022-09-20T16:43:36.781Z,19.60
2022-09-20T16:48:40.854Z,19.50
2022-09-20T16:53:45.534Z,19.60
2022-09-20T16:58:49.364Z,19.60
2022-09-20T17:03:52.793Z,19.60
2022-09-20T17:08:59.137Z,19.60
2022-09-20T17:14:02.887Z,19.60
2022-09-20T17:19:08.503Z,19.50
2022-09-20T17:24:13.855Z,19.40
2022-09-20T17:29:18.120Z,19.40
2022-09-20T17:34:22.363Z,19.30
2022-09-20T17:39:26.986Z,19.10
2022-09-20T17:44:30.320Z,19.00
2022-09-20T17:49:34.712Z,18.90
2022-09-20T17:54:39.650Z,18.90
2022-09-20T17:59:42.821Z,18.90
2022-09-20T18:04:46.387Z,18.80
2022-09-20T18:09:51.211Z,18.80
2022-09-20T18:14:56.990Z,18.80
2022-09-20T18:20:00.212Z,18.70
2022-09-20T18:25:05.068Z,18.70
2022-09-20T18:30:09.586Z,18.60
2022-09-20T18:35:12.976Z,18.60
2022-09-20T18:40:17.681Z,18.60
2022-09-20T18:45:24.394Z,18.50
2022-09-20T18:50:27.826Z,18.50
2022-09-20T18:55:34.610Z,18.50
2022-09-20T19:00:38.114Z,18.50
2022-09-20T19:05:45.850Z,18.50
2022-09-20T19:10:55.513Z,18.50
2022-09-20T19:16:20.679Z,18.50
2022-09-20T19:21:29.725Z,18.50
2022-09-20T19:26:38.124Z,18.50
2022-09-20T19:31:41.785Z,18.40
2022-09-20T19:36:56.268Z,18.40
2022-09-20T19:42:08.350Z,18.30
2022-09-20T19:47:24.322Z,18.30
2022-09-20T19:52:28.081Z,18.20
2022-09-20T19:57:40.255Z,18.20
2022-09-20T20:02:44.651Z,18.20
2022-09-20T20:07:54.844Z,18.20
2022-09-20T20:13:27.779Z,18.20
2022-09-20T20:18:40.642Z,18.10
2022-09-20T20:23:59.208Z,18.10
2022-09-20T20:29:04.787Z,18.10
2022-09-20T20:34:08.885Z,18.10
2022-09-20T20:39:12.499Z,18.00
2022-09-20T20:44:17.132Z,18.00
2022-09-20T20:49:20.417Z,18.00
2022-09-20T20:54:23.699Z,18.00
2022-09-20T20:59:28.373Z,18.00
2022-09-20T21:04:33.270Z,17.90
2022-09-20T21:09:37.093Z,17.90
2022-09-20T21:14:41.767Z,17.90
2022-09-20T21:19:44.983Z,17.80
2022-09-20T21:24:49.259Z,17.70
2022-09-20T21:29:54.543Z,17.50
2022-09-20T21:34:58.087Z,17.40
2022-09-20T21:40:01.828Z,17.40
2022-09-20T21:45:10.968Z,17.30
2022-09-20T21:50:14.337Z,17.30
2022-09-20T21:55:17.516Z,17.40
2022-09-20T22:00:22.397Z,17.30
2022-09-20T22:05:26.856Z,17.40
2022-09-20T22:10:30.526Z,17.40
2022-09-20T22:15:35.157Z,17.40
2022-09-20T22:20:38.504Z,17.40
2022-09-20T22:25:41.778Z,17.30
2022-09-20T22:30:46.834Z,17.20
2022-09-20T22:35:50.123Z,17.10
2022-09-20T22:40:55.190Z,17.10
2022-09-20T22:46:05.643Z,17.10
2022-09-20T22:51:10.566Z,17.10
2022-09-20T22:56:16.090Z,17.10
2022-09-20T23:01:23.675Z,17.20
2022-09-20T23:06:29.559Z,17.10
2022-09-20T23:11:34.066Z,17.10
2022-09-20T23:16:39.800Z,17.20
2022-09-20T23:21:44.702Z,17.20
2022-09-20T23:26:48.427Z,17.20
2022-09-20T23:31:53.135Z,17.20
2022-09-20T23:36:56.340Z,17.30
2022-09-20T23:41:59.863Z,17.30
2022-09-20T23:47:04.458Z,17.40
2022-09-20T23:52:07.701Z,17.40
2022-09-20T23:57:11.032Z,17.30
